sensor_id;sensor_type;location;lat;lon;timestamp;P1;durP1;ratioP1;P2;durP2;ratioP2
24407;SDS011;12542;50.924;4.516;2024-01-06T00:02:05;4.80;;;2.78;;
24407;SDS011;12542;50.924;4.516;2024-01-06T00:04:31;6.60;;;3.42;;
24407;SDS011;12542;50.924;4.516;2024-01-06T00:06:57;4.90;;;3.03;;
24407;SDS011;12542;50.924;4.516;2024-01-06T00:09:23;6.10;;;3.30;;
24407;SDS011;12542;50.924;4.516;2024-01-06T00:11:48;3.92;;;2.60;;
24407;SDS011;12542;50.924;4.516;2024-01-06T00:14:14;6.93;;;3.03;;
24407;SDS011;12542;50.924;4.516;2024-01-06T00:16:40;4.78;;;2.45;;
24407;SDS011;12542;50.924;4.516;2024-01-06T00:19:05;7.22;;;3.10;;
24407;SDS011;12542;50.924;4.516;2024-01-06T00:21:31;8.95;;;3.45;;
24407;SDS011;12542;50.924;4.516;2024-01-06T00:23:57;7.32;;;3.47;;
24407;SDS011;12542;50.924;4.516;2024-01-06T00:26:22;7.85;;;3.63;;
24407;SDS011;12542;50.924;4.516;2024-01-06T00:28:51;9.65;;;3.75;;
24407;SDS011;12542;50.924;4.516;2024-01-06T00:31:17;10.10;;;4.00;;
24407;SDS011;12542;50.924;4.516;2024-01-06T00:33:43;9.50;;;3.90;;
24407;SDS011;12542;50.924;4.516;2024-01-06T00:36:08;8.20;;;3.70;;
24407;SDS011;12542;50.924;4.516;2024-01-06T00:38:37;8.95;;;3.97;;
24407;SDS011;12542;50.924;4.516;2024-01-06T00:41:03;11.68;;;3.88;;
24407;SDS011;12542;50.924;4.516;2024-01-06T00:43:28;9.48;;;3.70;;
24407;SDS011;12542;50.924;4.516;2024-01-06T00:45:54;6.95;;;3.35;;
24407;SDS011;12542;50.924;4.516;2024-01-06T00:48:20;8.80;;;4.05;;
24407;SDS011;12542;50.924;4.516;2024-01-06T00:50:46;8.80;;;4.03;;
24407;SDS011;12542;50.924;4.516;2024-01-06T00:53:12;6.32;;;3.97;;
24407;SDS011;12542;50.924;4.516;2024-01-06T00:55:38;12.15;;;4.18;;
24407;SDS011;12542;50.924;4.516;2024-01-06T00:58:03;6.88;;;3.50;;
24407;SDS011;12542;50.924;4.516;2024-01-06T01:00:29;5.80;;;3.90;;
24407;SDS011;12542;50.924;4.516;2024-01-06T01:02:55;6.05;;;3.40;;
24407;SDS011;12542;50.924;4.516;2024-01-06T01:05:20;6.80;;;3.22;;
24407;SDS011;12542;50.924;4.516;2024-01-06T01:07:46;6.90;;;3.33;;
24407;SDS011;12542;50.924;4.516;2024-01-06T01:10:12;6.97;;;3.47;;
24407;SDS011;12542;50.924;4.516;2024-01-06T01:12:38;6.70;;;2.97;;
24407;SDS011;12542;50.924;4.516;2024-01-06T01:15:04;7.22;;;3.30;;
24407;SDS011;12542;50.924;4.516;2024-01-06T01:17:30;3.85;;;2.67;;
24407;SDS011;12542;50.924;4.516;2024-01-06T01:19:56;5.38;;;2.78;;
24407;SDS011;12542;50.924;4.516;2024-01-06T01:22:21;5.85;;;2.70;;
24407;SDS011;12542;50.924;4.516;2024-01-06T01:24:47;5.15;;;2.85;;
24407;SDS011;12542;50.924;4.516;2024-01-06T01:27:13;7.70;;;2.75;;
24407;SDS011;12542;50.924;4.516;2024-01-06T01:29:39;7.40;;;2.80;;
24407;SDS011;12542;50.924;4.516;2024-01-06T01:32:04;5.70;;;2.20;;
24407;SDS011;12542;50.924;4.516;2024-01-06T01:34:30;4.88;;;2.58;;
24407;SDS011;12542;50.924;4.516;2024-01-06T01:36:56;2.88;;;2.00;;
24407;SDS011;12542;50.924;4.516;2024-01-06T01:39:24;4.25;;;2.33;;
24407;SDS011;12542;50.924;4.516;2024-01-06T01:41:50;4.80;;;2.00;;
24407;SDS011;12542;50.924;4.516;2024-01-06T01:44:16;4.15;;;1.92;;
24407;SDS011;12542;50.924;4.516;2024-01-06T01:46:41;3.85;;;2.20;;
24407;SDS011;12542;50.924;4.516;2024-01-06T01:49:07;3.85;;;2.17;;
24407;SDS011;12542;50.924;4.516;2024-01-06T01:51:34;5.07;;;2.20;;
24407;SDS011;12542;50.924;4.516;2024-01-06T01:54:03;4.00;;;2.47;;
24407;SDS011;12542;50.924;4.516;2024-01-06T01:56:31;3.97;;;2.28;;
24407;SDS011;12542;50.924;4.516;2024-01-06T01:59:01;4.38;;;2.58;;
24407;SDS011;12542;50.924;4.516;2024-01-06T02:01:31;5.22;;;2.90;;
24407;SDS011;12542;50.924;4.516;2024-01-06T02:03:58;5.32;;;3.30;;
24407;SDS011;12542;50.924;4.516;2024-01-06T02:06:23;6.30;;;3.92;;
24407;SDS011;12542;50.924;4.516;2024-01-06T02:08:49;8.02;;;4.43;;
24407;SDS011;12542;50.924;4.516;2024-01-06T02:11:15;8.43;;;4.07;;
24407;SDS011;12542;50.924;4.516;2024-01-06T02:13:40;7.38;;;4.45;;
24407;SDS011;12542;50.924;4.516;2024-01-06T02:16:06;11.88;;;4.78;;
24407;SDS011;12542;50.924;4.516;2024-01-06T02:18:32;7.93;;;4.43;;
24407;SDS011;12542;50.924;4.516;2024-01-06T02:20:58;7.40;;;4.35;;
24407;SDS011;12542;50.924;4.516;2024-01-06T02:23:28;6.82;;;4.40;;
24407;SDS011;12542;50.924;4.516;2024-01-06T02:25:55;5.53;;;4.50;;
24407;SDS011;12542;50.924;4.516;2024-01-06T02:28:21;10.63;;;4.40;;
24407;SDS011;12542;50.924;4.516;2024-01-06T02:30:47;6.45;;;4.45;;
24407;SDS011;12542;50.924;4.516;2024-01-06T02:33:13;9.80;;;4.55;;
24407;SDS011;12542;50.924;4.516;2024-01-06T02:35:39;9.20;;;4.93;;
24407;SDS011;12542;50.924;4.516;2024-01-06T02:38:05;8.25;;;4.60;;
24407;SDS011;12542;50.924;4.516;2024-01-06T02:40:31;8.85;;;4.47;;
24407;SDS011;12542;50.924;4.516;2024-01-06T02:42:57;6.55;;;4.47;;
24407;SDS011;12542;50.924;4.516;2024-01-06T02:45:23;6.80;;;3.88;;
24407;SDS011;12542;50.924;4.516;2024-01-06T02:47:49;8.55;;;4.57;;
24407;SDS011;12542;50.924;4.516;2024-01-06T02:50:15;7.32;;;4.38;;
24407;SDS011;12542;50.924;4.516;2024-01-06T02:52:41;9.02;;;4.40;;
24407;SDS011;12542;50.924;4.516;2024-01-06T02:55:06;7.15;;;4.15;;
24407;SDS011;12542;50.924;4.516;2024-01-06T02:57:32;7.47;;;3.47;;
24407;SDS011;12542;50.924;4.516;2024-01-06T02:59:58;6.88;;;4.10;;
24407;SDS011;12542;50.924;4.516;2024-01-06T03:02:24;4.68;;;3.28;;
24407;SDS011;12542;50.924;4.516;2024-01-06T03:04:49;5.85;;;3.67;;
24407;SDS011;12542;50.924;4.516;2024-01-06T03:07:15;8.75;;;3.25;;
24407;SDS011;12542;50.924;4.516;2024-01-06T03:09:41;6.45;;;3.20;;
24407;SDS011;12542;50.924;4.516;2024-01-06T03:12:06;7.40;;;3.53;;
24407;SDS011;12542;50.924;4.516;2024-01-06T03:14:35;5.68;;;3.45;;
24407;SDS011;12542;50.924;4.516;2024-01-06T03:17:02;4.55;;;2.97;;
24407;SDS011;12542;50.924;4.516;2024-01-06T03:19:28;4.78;;;3.40;;
24407;SDS011;12542;50.924;4.516;2024-01-06T03:21:54;6.57;;;3.75;;
24407;SDS011;12542;50.924;4.516;2024-01-06T03:24:23;5.70;;;4.15;;
24407;SDS011;12542;50.924;4.516;2024-01-06T03:26:50;7.82;;;4.68;;
24407;SDS011;12542;50.924;4.516;2024-01-06T03:29:15;8.95;;;4.95;;
24407;SDS011;12542;50.924;4.516;2024-01-06T03:31:42;7.80;;;4.78;;
24407;SDS011;12542;50.924;4.516;2024-01-06T03:34:08;7.90;;;4.95;;
24407;SDS011;12542;50.924;4.516;2024-01-06T03:36:39;7.60;;;4.88;;
24407;SDS011;12542;50.924;4.516;2024-01-06T03:39:05;9.63;;;5.43;;
24407;SDS011;12542;50.924;4.516;2024-01-06T03:41:32;10.23;;;5.03;;
24407;SDS011;12542;50.924;4.516;2024-01-06T03:43:57;12.75;;;5.88;;
24407;SDS011;12542;50.924;4.516;2024-01-06T03:46:23;10.65;;;6.18;;
24407;SDS011;12542;50.924;4.516;2024-01-06T03:48:52;13.40;;;6.75;;
24407;SDS011;12542;50.924;4.516;2024-01-06T03:51:17;11.10;;;6.85;;
24407;SDS011;12542;50.924;4.516;2024-01-06T03:53:43;14.85;;;7.70;;
24407;SDS011;12542;50.924;4.516;2024-01-06T03:56:12;16.00;;;7.75;;
24407;SDS011;12542;50.924;4.516;2024-01-06T03:58:38;20.05;;;8.55;;
24407;SDS011;12542;50.924;4.516;2024-01-06T04:01:04;14.90;;;7.07;;
24407;SDS011;12542;50.924;4.516;2024-01-06T04:03:29;13.52;;;7.80;;
24407;SDS011;12542;50.924;4.516;2024-01-06T04:05:55;15.32;;;8.40;;
24407;SDS011;12542;50.924;4.516;2024-01-06T04:08:21;16.70;;;8.27;;
24407;SDS011;12542;50.924;4.516;2024-01-06T04:10:46;13.02;;;8.15;;
24407;SDS011;12542;50.924;4.516;2024-01-06T04:13:12;15.48;;;8.02;;
24407;SDS011;12542;50.924;4.516;2024-01-06T04:15:38;16.45;;;8.27;;
24407;SDS011;12542;50.924;4.516;2024-01-06T04:18:04;15.45;;;7.30;;
24407;SDS011;12542;50.924;4.516;2024-01-06T04:20:30;18.10;;;7.18;;
24407;SDS011;12542;50.924;4.516;2024-01-06T04:22:57;16.75;;;7.05;;
24407;SDS011;12542;50.924;4.516;2024-01-06T04:25:22;13.68;;;7.60;;
24407;SDS011;12542;50.924;4.516;2024-01-06T04:27:48;13.43;;;6.78;;
24407;SDS011;12542;50.924;4.516;2024-01-06T04:30:15;15.70;;;7.07;;
24407;SDS011;12542;50.924;4.516;2024-01-06T04:32:41;14.85;;;6.13;;
24407;SDS011;12542;50.924;4.516;2024-01-06T04:35:07;13.75;;;6.07;;
24407;SDS011;12542;50.924;4.516;2024-01-06T04:37:33;12.98;;;5.75;;
24407;SDS011;12542;50.924;4.516;2024-01-06T04:39:59;11.18;;;6.38;;
24407;SDS011;12542;50.924;4.516;2024-01-06T04:42:25;11.77;;;6.15;;
24407;SDS011;12542;50.924;4.516;2024-01-06T04:44:51;11.63;;;6.47;;
24407;SDS011;12542;50.924;4.516;2024-01-06T04:47:17;12.70;;;6.05;;
24407;SDS011;12542;50.924;4.516;2024-01-06T04:49:43;15.27;;;6.45;;
24407;SDS011;12542;50.924;4.516;2024-01-06T04:52:09;11.75;;;6.00;;
24407;SDS011;12542;50.924;4.516;2024-01-06T04:54:35;8.40;;;4.53;;
24407;SDS011;12542;50.924;4.516;2024-01-06T04:57:00;11.25;;;4.80;;
24407;SDS011;12542;50.924;4.516;2024-01-06T04:59:26;12.40;;;4.78;;
24407;SDS011;12542;50.924;4.516;2024-01-06T05:01:52;11.13;;;4.63;;
24407;SDS011;12542;50.924;4.516;2024-01-06T05:04:18;12.63;;;4.32;;
24407;SDS011;12542;50.924;4.516;2024-01-06T05:06:44;8.02;;;4.97;;
24407;SDS011;12542;50.924;4.516;2024-01-06T05:09:10;8.50;;;4.65;;
24407;SDS011;12542;50.924;4.516;2024-01-06T05:11:36;10.25;;;5.18;;
24407;SDS011;12542;50.924;4.516;2024-01-06T05:14:01;11.20;;;4.97;;
24407;SDS011;12542;50.924;4.516;2024-01-06T05:16:27;9.65;;;4.65;;
24407;SDS011;12542;50.924;4.516;2024-01-06T05:18:53;11.80;;;5.20;;
24407;SDS011;12542;50.924;4.516;2024-01-06T05:21:19;8.40;;;5.07;;
24407;SDS011;12542;50.924;4.516;2024-01-06T05:23:45;9.45;;;5.57;;
24407;SDS011;12542;50.924;4.516;2024-01-06T05:26:11;14.20;;;5.80;;
24407;SDS011;12542;50.924;4.516;2024-01-06T05:28:38;11.82;;;5.30;;
24407;SDS011;12542;50.924;4.516;2024-01-06T05:31:05;12.13;;;5.78;;
24407;SDS011;12542;50.924;4.516;2024-01-06T05:33:31;11.00;;;5.43;;
24407;SDS011;12542;50.924;4.516;2024-01-06T05:35:56;15.20;;;5.65;;
24407;SDS011;12542;50.924;4.516;2024-01-06T05:38:22;10.32;;;5.47;;
24407;SDS011;12542;50.924;4.516;2024-01-06T05:40:48;11.70;;;5.50;;
24407;SDS011;12542;50.924;4.516;2024-01-06T05:43:14;7.97;;;5.30;;
24407;SDS011;12542;50.924;4.516;2024-01-06T05:45:39;11.20;;;5.15;;
24407;SDS011;12542;50.924;4.516;2024-01-06T05:48:09;11.30;;;5.70;;
24407;SDS011;12542;50.924;4.516;2024-01-06T05:50:37;11.10;;;5.05;;
24407;SDS011;12542;50.924;4.516;2024-01-06T05:53:04;9.52;;;4.50;;
24407;SDS011;12542;50.924;4.516;2024-01-06T05:55:32;11.65;;;4.60;;
24407;SDS011;12542;50.924;4.516;2024-01-06T05:57:58;7.78;;;4.90;;
24407;SDS011;12542;50.924;4.516;2024-01-06T06:00:24;8.77;;;3.78;;
24407;SDS011;12542;50.924;4.516;2024-01-06T06:02:49;8.82;;;4.13;;
24407;SDS011;12542;50.924;4.516;2024-01-06T06:05:15;10.32;;;4.30;;
24407;SDS011;12542;50.924;4.516;2024-01-06T06:07:41;13.40;;;4.55;;
24407;SDS011;12542;50.924;4.516;2024-01-06T06:10:08;7.72;;;3.78;;
24407;SDS011;12542;50.924;4.516;2024-01-06T06:12:34;8.50;;;3.95;;
24407;SDS011;12542;50.924;4.516;2024-01-06T06:15:00;7.70;;;4.50;;
24407;SDS011;12542;50.924;4.516;2024-01-06T06:17:28;7.82;;;4.28;;
24407;SDS011;12542;50.924;4.516;2024-01-06T06:19:57;9.50;;;3.70;;
24407;SDS011;12542;50.924;4.516;2024-01-06T06:22:24;5.68;;;3.75;;
24407;SDS011;12542;50.924;4.516;2024-01-06T06:24:55;8.07;;;4.18;;
24407;SDS011;12542;50.924;4.516;2024-01-06T06:27:25;10.15;;;4.10;;
24407;SDS011;12542;50.924;4.516;2024-01-06T06:29:51;7.93;;;3.92;;
24407;SDS011;12542;50.924;4.516;2024-01-06T06:32:17;8.02;;;4.75;;
24407;SDS011;12542;50.924;4.516;2024-01-06T06:34:43;10.88;;;4.65;;
24407;SDS011;12542;50.924;4.516;2024-01-06T06:37:09;9.85;;;4.75;;
24407;SDS011;12542;50.924;4.516;2024-01-06T06:39:34;8.40;;;4.90;;
24407;SDS011;12542;50.924;4.516;2024-01-06T06:42:01;11.82;;;5.32;;
24407;SDS011;12542;50.924;4.516;2024-01-06T06:44:27;10.15;;;5.25;;
24407;SDS011;12542;50.924;4.516;2024-01-06T06:46:54;7.25;;;4.32;;
24407;SDS011;12542;50.924;4.516;2024-01-06T06:49:20;11.77;;;6.03;;
24407;SDS011;12542;50.924;4.516;2024-01-06T06:51:46;9.20;;;5.18;;
24407;SDS011;12542;50.924;4.516;2024-01-06T06:54:13;9.00;;;5.22;;
24407;SDS011;12542;50.924;4.516;2024-01-06T06:56:40;6.75;;;4.47;;
24407;SDS011;12542;50.924;4.516;2024-01-06T06:59:09;9.55;;;4.53;;
24407;SDS011;12542;50.924;4.516;2024-01-06T07:01:35;7.10;;;4.35;;
24407;SDS011;12542;50.924;4.516;2024-01-06T07:04:04;9.05;;;4.50;;
24407;SDS011;12542;50.924;4.516;2024-01-06T07:06:29;10.70;;;4.00;;
24407;SDS011;12542;50.924;4.516;2024-01-06T07:08:55;8.38;;;4.15;;
24407;SDS011;12542;50.924;4.516;2024-01-06T07:11:21;10.55;;;4.35;;
24407;SDS011;12542;50.924;4.516;2024-01-06T07:13:47;7.18;;;4.40;;
24407;SDS011;12542;50.924;4.516;2024-01-06T07:16:13;8.35;;;4.70;;
24407;SDS011;12542;50.924;4.516;2024-01-06T07:18:39;7.57;;;4.60;;
24407;SDS011;12542;50.924;4.516;2024-01-06T07:21:05;9.25;;;4.90;;
24407;SDS011;12542;50.924;4.516;2024-01-06T07:23:33;8.43;;;4.93;;
24407;SDS011;12542;50.924;4.516;2024-01-06T07:25:59;11.30;;;5.70;;
24407;SDS011;12542;50.924;4.516;2024-01-06T07:28:25;8.27;;;4.35;;
24407;SDS011;12542;50.924;4.516;2024-01-06T07:30:51;8.05;;;4.93;;
24407;SDS011;12542;50.924;4.516;2024-01-06T07:33:20;11.75;;;6.53;;
24407;SDS011;12542;50.924;4.516;2024-01-06T07:35:46;7.15;;;4.50;;
24407;SDS011;12542;50.924;4.516;2024-01-06T07:38:12;7.63;;;4.80;;
24407;SDS011;12542;50.924;4.516;2024-01-06T07:40:38;12.15;;;5.60;;
24407;SDS011;12542;50.924;4.516;2024-01-06T07:43:04;9.90;;;5.22;;
24407;SDS011;12542;50.924;4.516;2024-01-06T07:45:33;12.13;;;6.28;;
24407;SDS011;12542;50.924;4.516;2024-01-06T07:47:59;9.65;;;5.35;;
24407;SDS011;12542;50.924;4.516;2024-01-06T07:50:25;10.70;;;5.47;;
24407;SDS011;12542;50.924;4.516;2024-01-06T07:52:51;10.80;;;5.50;;
24407;SDS011;12542;50.924;4.516;2024-01-06T07:55:17;12.02;;;5.50;;
24407;SDS011;12542;50.924;4.516;2024-01-06T07:57:43;18.83;;;5.90;;
24407;SDS011;12542;50.924;4.516;2024-01-06T08:00:09;9.32;;;5.28;;
24407;SDS011;12542;50.924;4.516;2024-01-06T08:02:39;8.48;;;5.43;;
24407;SDS011;12542;50.924;4.516;2024-01-06T08:05:08;15.88;;;6.72;;
24407;SDS011;12542;50.924;4.516;2024-01-06T08:07:34;12.45;;;5.55;;
24407;SDS011;12542;50.924;4.516;2024-01-06T08:10:00;10.30;;;6.07;;
24407;SDS011;12542;50.924;4.516;2024-01-06T08:12:29;13.73;;;5.65;;
24407;SDS011;12542;50.924;4.516;2024-01-06T08:14:55;9.52;;;5.22;;
24407;SDS011;12542;50.924;4.516;2024-01-06T08:17:21;11.05;;;6.25;;
24407;SDS011;12542;50.924;4.516;2024-01-06T08:19:47;14.63;;;6.20;;
24407;SDS011;12542;50.924;4.516;2024-01-06T08:22:13;8.93;;;5.97;;
24407;SDS011;12542;50.924;4.516;2024-01-06T08:24:39;11.30;;;6.20;;
24407;SDS011;12542;50.924;4.516;2024-01-06T08:27:04;12.63;;;6.13;;
24407;SDS011;12542;50.924;4.516;2024-01-06T08:29:30;11.00;;;5.47;;
24407;SDS011;12542;50.924;4.516;2024-01-06T08:31:56;11.52;;;5.05;;
24407;SDS011;12542;50.924;4.516;2024-01-06T08:34:22;11.90;;;6.20;;
24407;SDS011;12542;50.924;4.516;2024-01-06T08:36:48;8.27;;;5.30;;
24407;SDS011;12542;50.924;4.516;2024-01-06T08:39:14;11.45;;;5.95;;
24407;SDS011;12542;50.924;4.516;2024-01-06T08:41:43;12.00;;;5.70;;
24407;SDS011;12542;50.924;4.516;2024-01-06T08:44:08;11.35;;;5.63;;
24407;SDS011;12542;50.924;4.516;2024-01-06T08:46:34;11.27;;;5.55;;
24407;SDS011;12542;50.924;4.516;2024-01-06T08:49:00;10.38;;;5.00;;
24407;SDS011;12542;50.924;4.516;2024-01-06T08:51:27;11.77;;;6.22;;
24407;SDS011;12542;50.924;4.516;2024-01-06T08:53:56;14.43;;;6.60;;
24407;SDS011;12542;50.924;4.516;2024-01-06T08:56:22;11.95;;;6.82;;
24407;SDS011;12542;50.924;4.516;2024-01-06T08:58:47;14.95;;;6.47;;
24407;SDS011;12542;50.924;4.516;2024-01-06T09:01:13;10.38;;;6.68;;
24407;SDS011;12542;50.924;4.516;2024-01-06T09:03:39;13.38;;;6.50;;
24407;SDS011;12542;50.924;4.516;2024-01-06T09:06:05;10.27;;;6.05;;
24407;SDS011;12542;50.924;4.516;2024-01-06T09:08:31;10.38;;;5.70;;
24407;SDS011;12542;50.924;4.516;2024-01-06T09:10:57;8.52;;;5.55;;
24407;SDS011;12542;50.924;4.516;2024-01-06T09:13:23;10.25;;;5.35;;
24407;SDS011;12542;50.924;4.516;2024-01-06T09:15:50;7.22;;;4.78;;
24407;SDS011;12542;50.924;4.516;2024-01-06T09:18:17;9.95;;;5.80;;
24407;SDS011;12542;50.924;4.516;2024-01-06T09:20:42;9.93;;;5.97;;
24407;SDS011;12542;50.924;4.516;2024-01-06T09:23:08;11.55;;;5.15;;
24407;SDS011;12542;50.924;4.516;2024-01-06T09:25:35;10.15;;;5.20;;
24407;SDS011;12542;50.924;4.516;2024-01-06T09:28:01;12.25;;;5.53;;
24407;SDS011;12542;50.924;4.516;2024-01-06T09:30:29;13.27;;;8.57;;
24407;SDS011;12542;50.924;4.516;2024-01-06T09:32:57;10.65;;;6.90;;
24407;SDS011;12542;50.924;4.516;2024-01-06T09:35:23;8.25;;;4.72;;
24407;SDS011;12542;50.924;4.516;2024-01-06T09:37:51;6.75;;;3.58;;
24407;SDS011;12542;50.924;4.516;2024-01-06T09:40:21;9.50;;;4.78;;
24407;SDS011;12542;50.924;4.516;2024-01-06T09:42:49;11.00;;;4.55;;
24407;SDS011;12542;50.924;4.516;2024-01-06T09:45:15;8.00;;;4.40;;
24407;SDS011;12542;50.924;4.516;2024-01-06T09:47:41;9.00;;;4.28;;
24407;SDS011;12542;50.924;4.516;2024-01-06T09:50:08;8.80;;;4.50;;
24407;SDS011;12542;50.924;4.516;2024-01-06T09:52:39;8.88;;;4.53;;
24407;SDS011;12542;50.924;4.516;2024-01-06T09:55:12;8.68;;;4.45;;
24407;SDS011;12542;50.924;4.516;2024-01-06T09:57:38;8.00;;;4.45;;
24407;SDS011;12542;50.924;4.516;2024-01-06T10:00:04;5.70;;;4.10;;
24407;SDS011;12542;50.924;4.516;2024-01-06T10:02:33;8.32;;;4.00;;
24407;SDS011;12542;50.924;4.516;2024-01-06T10:04:59;5.97;;;4.15;;
24407;SDS011;12542;50.924;4.516;2024-01-06T10:07:28;6.13;;;3.83;;
24407;SDS011;12542;50.924;4.516;2024-01-06T10:09:54;7.30;;;4.25;;
24407;SDS011;12542;50.924;4.516;2024-01-06T10:12:26;9.00;;;4.95;;
24407;SDS011;12542;50.924;4.516;2024-01-06T10:14:53;6.13;;;3.65;;
24407;SDS011;12542;50.924;4.516;2024-01-06T10:17:19;7.35;;;3.95;;
24407;SDS011;12542;50.924;4.516;2024-01-06T10:19:47;9.23;;;3.83;;
24407;SDS011;12542;50.924;4.516;2024-01-06T10:22:13;5.53;;;3.60;;
24407;SDS011;12542;50.924;4.516;2024-01-06T10:24:39;7.13;;;4.40;;
24407;SDS011;12542;50.924;4.516;2024-01-06T10:27:05;5.63;;;3.65;;
24407;SDS011;12542;50.924;4.516;2024-01-06T10:29:33;10.70;;;4.75;;
24407;SDS011;12542;50.924;4.516;2024-01-06T10:31:59;9.80;;;4.32;;
24407;SDS011;12542;50.924;4.516;2024-01-06T10:34:25;6.95;;;4.20;;
24407;SDS011;12542;50.924;4.516;2024-01-06T10:36:51;7.45;;;4.40;;
24407;SDS011;12542;50.924;4.516;2024-01-06T10:39:18;8.52;;;4.57;;
24407;SDS011;12542;50.924;4.516;2024-01-06T10:41:45;5.88;;;3.45;;
24407;SDS011;12542;50.924;4.516;2024-01-06T10:44:13;6.13;;;3.25;;
24407;SDS011;12542;50.924;4.516;2024-01-06T10:46:40;7.18;;;3.40;;
24407;SDS011;12542;50.924;4.516;2024-01-06T10:49:07;5.53;;;3.78;;
24407;SDS011;12542;50.924;4.516;2024-01-06T10:51:37;6.03;;;3.28;;
24407;SDS011;12542;50.924;4.516;2024-01-06T10:54:03;5.30;;;3.60;;
24407;SDS011;12542;50.924;4.516;2024-01-06T10:56:36;7.22;;;4.20;;
24407;SDS011;12542;50.924;4.516;2024-01-06T10:59:03;7.10;;;4.00;;
24407;SDS011;12542;50.924;4.516;2024-01-06T11:01:29;8.18;;;3.85;;
24407;SDS011;12542;50.924;4.516;2024-01-06T11:03:56;7.53;;;3.90;;
24407;SDS011;12542;50.924;4.516;2024-01-06T11:06:23;7.38;;;4.55;;
24407;SDS011;12542;50.924;4.516;2024-01-06T11:09:06;7.10;;;4.07;;
24407;SDS011;12542;50.924;4.516;2024-01-06T11:11:39;10.20;;;5.30;;
24407;SDS011;12542;50.924;4.516;2024-01-06T11:16:51;10.13;;;4.63;;
24407;SDS011;12542;50.924;4.516;2024-01-06T11:22:24;9.45;;;4.65;;
24407;SDS011;12542;50.924;4.516;2024-01-06T11:25:03;6.35;;;4.55;;
24407;SDS011;12542;50.924;4.516;2024-01-06T11:27:33;11.68;;;5.82;;
24407;SDS011;12542;50.924;4.516;2024-01-06T11:30:03;8.05;;;5.38;;
24407;SDS011;12542;50.924;4.516;2024-01-06T11:32:31;11.90;;;5.28;;
24407;SDS011;12542;50.924;4.516;2024-01-06T11:35:08;9.73;;;5.32;;
24407;SDS011;12542;50.924;4.516;2024-01-06T11:37:50;7.20;;;4.63;;
24407;SDS011;12542;50.924;4.516;2024-01-06T11:42:46;8.45;;;5.47;;
24407;SDS011;12542;50.924;4.516;2024-01-06T11:45:13;9.50;;;5.10;;
24407;SDS011;12542;50.924;4.516;2024-01-06T11:47:43;9.52;;;6.40;;
24407;SDS011;12542;50.924;4.516;2024-01-06T11:50:13;9.50;;;5.85;;
24407;SDS011;12542;50.924;4.516;2024-01-06T11:52:39;8.57;;;5.63;;
24407;SDS011;12542;50.924;4.516;2024-01-06T11:55:05;9.75;;;5.65;;
24407;SDS011;12542;50.924;4.516;2024-01-06T11:57:34;8.65;;;5.35;;
24407;SDS011;12542;50.924;4.516;2024-01-06T12:00:00;9.40;;;5.78;;
24407;SDS011;12542;50.924;4.516;2024-01-06T12:02:26;9.00;;;5.50;;
24407;SDS011;12542;50.924;4.516;2024-01-06T12:04:52;8.18;;;5.63;;
24407;SDS011;12542;50.924;4.516;2024-01-06T12:07:19;9.82;;;5.57;;
24407;SDS011;12542;50.924;4.516;2024-01-06T12:09:47;9.63;;;5.70;;
24407;SDS011;12542;50.924;4.516;2024-01-06T12:12:17;12.95;;;5.97;;
24407;SDS011;12542;50.924;4.516;2024-01-06T12:14:43;8.98;;;6.30;;
24407;SDS011;12542;50.924;4.516;2024-01-06T12:17:12;10.30;;;6.10;;
24407;SDS011;12542;50.924;4.516;2024-01-06T12:19:38;11.27;;;6.18;;
24407;SDS011;12542;50.924;4.516;2024-01-06T12:22:07;10.43;;;5.78;;
24407;SDS011;12542;50.924;4.516;2024-01-06T12:24:35;11.95;;;6.28;;
24407;SDS011;12542;50.924;4.516;2024-01-06T12:27:01;10.40;;;5.80;;
24407;SDS011;12542;50.924;4.516;2024-01-06T12:29:29;9.90;;;5.97;;
24407;SDS011;12542;50.924;4.516;2024-01-06T12:31:56;8.07;;;5.78;;
24407;SDS011;12542;50.924;4.516;2024-01-06T12:34:24;9.25;;;5.97;;
24407;SDS011;12542;50.924;4.516;2024-01-06T12:36:55;11.95;;;5.80;;
24407;SDS011;12542;50.924;4.516;2024-01-06T12:39:20;9.93;;;5.88;;
24407;SDS011;12542;50.924;4.516;2024-01-06T12:41:48;7.35;;;4.63;;
24407;SDS011;12542;50.924;4.516;2024-01-06T12:44:15;9.57;;;5.15;;
24407;SDS011;12542;50.924;4.516;2024-01-06T12:46:41;6.68;;;4.47;;
24407;SDS011;12542;50.924;4.516;2024-01-06T12:49:06;7.55;;;4.75;;
24407;SDS011;12542;50.924;4.516;2024-01-06T12:51:32;10.05;;;5.40;;
24407;SDS011;12542;50.924;4.516;2024-01-06T12:53:58;7.18;;;4.90;;
24407;SDS011;12542;50.924;4.516;2024-01-06T12:56:26;7.78;;;4.97;;
24407;SDS011;12542;50.924;4.516;2024-01-06T12:58:52;7.20;;;4.43;;
24407;SDS011;12542;50.924;4.516;2024-01-06T13:01:18;7.35;;;4.80;;
24407;SDS011;12542;50.924;4.516;2024-01-06T13:03:44;11.25;;;5.25;;
24407;SDS011;12542;50.924;4.516;2024-01-06T13:06:09;8.95;;;5.18;;
24407;SDS011;12542;50.924;4.516;2024-01-06T13:08:35;7.32;;;4.53;;
24407;SDS011;12542;50.924;4.516;2024-01-06T13:11:02;8.48;;;4.88;;
24407;SDS011;12542;50.924;4.516;2024-01-06T13:13:28;8.05;;;4.72;;
24407;SDS011;12542;50.924;4.516;2024-01-06T13:15:55;10.82;;;5.32;;
24407;SDS011;12542;50.924;4.516;2024-01-06T13:18:20;9.70;;;4.55;;
24407;SDS011;12542;50.924;4.516;2024-01-06T13:20:46;9.52;;;5.00;;
24407;SDS011;12542;50.924;4.516;2024-01-06T13:23:12;10.13;;;4.90;;
24407;SDS011;12542;50.924;4.516;2024-01-06T13:25:38;6.35;;;4.70;;
24407;SDS011;12542;50.924;4.516;2024-01-06T13:28:05;7.43;;;4.63;;
24407;SDS011;12542;50.924;4.516;2024-01-06T13:30:31;6.88;;;4.88;;
24407;SDS011;12542;50.924;4.516;2024-01-06T13:32:57;7.85;;;4.63;;
24407;SDS011;12542;50.924;4.516;2024-01-06T13:35:24;6.65;;;4.18;;
24407;SDS011;12542;50.924;4.516;2024-01-06T13:37:53;8.38;;;4.60;;
24407;SDS011;12542;50.924;4.516;2024-01-06T13:40:20;8.75;;;5.03;;
24407;SDS011;12542;50.924;4.516;2024-01-06T13:42:47;7.75;;;4.47;;
24407;SDS011;12542;50.924;4.516;2024-01-06T13:45:13;7.72;;;5.13;;
24407;SDS011;12542;50.924;4.516;2024-01-06T13:47:39;7.25;;;4.88;;
24407;SDS011;12542;50.924;4.516;2024-01-06T13:50:13;9.82;;;4.63;;
24407;SDS011;12542;50.924;4.516;2024-01-06T13:52:41;7.47;;;4.32;;
24407;SDS011;12542;50.924;4.516;2024-01-06T13:55:07;8.75;;;5.03;;
24407;SDS011;12542;50.924;4.516;2024-01-06T13:57:34;7.68;;;4.45;;
24407;SDS011;12542;50.924;4.516;2024-01-06T14:00:00;11.05;;;4.55;;
24407;SDS011;12542;50.924;4.516;2024-01-06T14:02:26;7.75;;;5.15;;
24407;SDS011;12542;50.924;4.516;2024-01-06T14:04:52;7.13;;;3.85;;
24407;SDS011;12542;50.924;4.516;2024-01-06T14:07:18;8.38;;;4.20;;
24407;SDS011;12542;50.924;4.516;2024-01-06T14:09:48;8.40;;;4.25;;
24407;SDS011;12542;50.924;4.516;2024-01-06T14:12:14;7.97;;;4.43;;
24407;SDS011;12542;50.924;4.516;2024-01-06T14:14:40;7.75;;;4.22;;
24407;SDS011;12542;50.924;4.516;2024-01-06T14:17:08;7.00;;;3.60;;
24407;SDS011;12542;50.924;4.516;2024-01-06T14:19:34;5.90;;;3.65;;
24407;SDS011;12542;50.924;4.516;2024-01-06T14:21:59;9.63;;;5.18;;
24407;SDS011;12542;50.924;4.516;2024-01-06T14:24:25;8.85;;;5.10;;
24407;SDS011;12542;50.924;4.516;2024-01-06T14:26:52;6.05;;;3.83;;
24407;SDS011;12542;50.924;4.516;2024-01-06T14:29:20;6.60;;;4.05;;
24407;SDS011;12542;50.924;4.516;2024-01-06T14:31:46;10.98;;;4.25;;
24407;SDS011;12542;50.924;4.516;2024-01-06T14:34:12;6.25;;;4.38;;
24407;SDS011;12542;50.924;4.516;2024-01-06T14:36:38;8.00;;;4.78;;
24407;SDS011;12542;50.924;4.516;2024-01-06T14:39:13;7.95;;;4.22;;
24407;SDS011;12542;50.924;4.516;2024-01-06T14:41:39;8.20;;;4.72;;
24407;SDS011;12542;50.924;4.516;2024-01-06T14:44:06;7.18;;;4.60;;
24407;SDS011;12542;50.924;4.516;2024-01-06T14:46:32;12.95;;;4.70;;
24407;SDS011;12542;50.924;4.516;2024-01-06T14:48:59;8.73;;;4.93;;